Time;durP1;ratioP1;P1;durP2;ratioP2;P2;SDS_P1;SDS_P2;PMS_P1;PMS_P2;Temp;Humidity;BMP_temperature;BMP_pressure;BME280_temperature;BME280_humidity;BME280_pressure;Samples;Min_cycle;Max_cycle;Signal;HPM_P1;HPM_P2
2020/12/13 00:01:39;;;;;;;4.50;1.67;;;;;;;1.06;100.00;98825.75;5031389;28;20052;-78
2020/12/13 00:04:42;;;;;;;5.35;1.95;;;;;;;1.00;100.00;98843.94;5031419;28;20048;-77
2020/12/13 00:07:45;;;;;;;5.82;1.83;;;;;;;0.87;100.00;98845.91;5031904;28;20056;-77
2020/12/13 00:10:48;;;;;;;4.40;2.22;;;;;;;0.80;100.00;98834.38;5034248;28;20132;-77
2020/12/13 00:13:51;;;;;;;1.25;1.25;;;;;;;0.73;100.00;98827.13;5040640;28;20178;-78
2020/12/13 00:16:54;;;;;;;3.10;1.70;;;;;;;0.66;100.00;98824.59;5054598;28;20098;-78
2020/12/13 00:19:57;;;;;;;1.20;1.10;;;;;;;0.64;100.00;98829.72;5054504;28;20091;-77
2020/12/13 00:23:00;;;;;;;1.98;0.85;;;;;;;0.60;100.00;98837.28;5054223;28;20136;-78
2020/12/13 00:26:07;;;;;;;1.45;0.55;;;;;;;0.51;100.00;98834.41;5054630;28;20075;-78
2020/12/13 00:29:11;;;;;;;2.08;1.27;;;;;;;0.46;100.00;98827.47;5054480;28;20103;-78
2020/12/13 00:32:14;;;;;;;1.48;1.02;;;;;;;0.42;100.00;98807.63;5054817;28;20130;-78
2020/12/13 00:35:17;;;;;;;1.75;1.00;;;;;;;0.39;100.00;98816.69;5054372;28;20052;-78
2020/12/13 00:38:21;;;;;;;3.20;1.38;;;;;;;0.32;100.00;98816.13;5054342;28;20044;-78
2020/12/13 00:41:24;;;;;;;1.30;1.10;;;;;;;0.24;100.00;98809.31;5053849;28;20044;-77
2020/12/13 00:44:26;;;;;;;0.82;0.82;;;;;;;0.16;100.00;98813.44;5054034;28;20043;-78
2020/12/13 00:47:29;;;;;;;4.45;1.42;;;;;;;0.06;100.00;98804.31;5054158;28;20108;-77
2020/12/13 00:50:33;;;;;;;1.95;1.10;;;;;;;-0.03;100.00;98807.66;5054059;28;20532;-78
2020/12/13 00:53:36;;;;;;;1.05;1.05;;;;;;;-0.06;100.00;98808.50;5041468;28;20048;-78
2020/12/13 00:56:43;;;;;;;1.23;1.23;;;;;;;-0.12;100.00;98812.97;5054052;28;20066;-77
2020/12/13 00:59:46;;;;;;;3.20;1.75;;;;;;;-0.16;100.00;98809.56;5054006;28;20098;-78
2020/12/13 01:02:49;;;;;;;1.23;1.15;;;;;;;-0.22;100.00;98811.25;5053904;28;20083;-78
2020/12/13 01:05:52;;;;;;;1.50;1.40;;;;;;;-0.28;100.00;98815.69;5053694;28;20385;-78
2020/12/13 01:08:55;;;;;;;0.77;0.77;;;;;;;-0.33;100.00;98813.50;5041109;28;20531;-77
2020/12/13 01:11:58;;;;;;;4.60;2.15;;;;;;;-0.39;100.00;98828.84;5053647;28;20132;-77
2020/12/13 01:15:05;;;;;;;10.07;4.57;;;;;;;-0.45;100.00;98825.09;5053466;28;20547;-78
2020/12/13 01:18:08;;;;;;;10.15;3.85;;;;;;;-0.46;100.00;98840.00;5053371;28;20096;-77
2020/12/13 01:21:25;;;;;;;13.25;2.50;;;;;;;-0.46;100.00;98842.72;5052754;28;20102;-78
2020/12/13 01:24:28;;;;;;;6.60;1.92;;;;;;;-0.51;100.00;98836.97;5052997;28;20143;-78
2020/12/13 01:27:31;;;;;;;3.22;1.42;;;;;;;-0.53;100.00;98856.56;5053141;28;20102;-77
2020/12/13 01:30:33;;;;;;;1.05;1.02;;;;;;;-0.57;100.00;98849.63;5053359;28;20056;-77
2020/12/13 01:33:36;;;;;;;1.52;0.60;;;;;;;-0.59;100.00;98852.00;5053200;28;20048;-78
2020/12/13 01:36:39;;;;;;;0.73;0.73;;;;;;;-0.60;100.00;98853.19;5052907;28;20052;-77
2020/12/13 01:39:42;;;;;;;0.88;0.88;;;;;;;-0.61;100.00;98855.19;5053185;28;20052;-78
2020/12/13 01:42:45;;;;;;;1.27;1.17;;;;;;;-0.66;100.00;98843.97;5053140;28;20048;-78
2020/12/13 01:45:48;;;;;;;2.72;1.52;;;;;;;-0.69;100.00;98842.84;5053174;28;20080;-78
2020/12/13 01:49:01;;;;;;;2.38;1.85;;;;;;;-0.69;100.00;98848.31;5040398;28;20099;-77
2020/12/13 01:55:29;;;;;;;6.32;2.05;;;;;;;-0.66;100.00;98847.47;5052469;28;20056;-78
2020/12/13 01:58:37;;;;;;;1.05;1.05;;;;;;;-0.67;100.00;98840.44;5052488;28;20048;-78
2020/12/13 02:01:42;;;;;;;1.17;0.82;;;;;;;-0.69;100.00;98848.31;5052715;28;20059;-78
2020/12/13 02:04:47;;;;;;;1.30;0.93;;;;;;;-0.68;100.00;98830.72;5052521;28;20091;-77
2020/12/13 02:07:50;;;;;;;2.63;1.60;;;;;;;-0.68;100.00;98828.00;5052819;28;20106;-78
2020/12/13 02:10:53;;;;;;;11.10;1.83;;;;;;;-0.68;100.00;98822.53;5052325;28;20098;-78
2020/12/13 02:13:56;;;;;;;1.80;1.50;;;;;;;-0.71;100.00;98823.38;5040045;28;20596;-77
2020/12/13 02:16:59;;;;;;;10.70;1.38;;;;;;;-0.73;100.00;98828.50;5052391;28;20087;-77
2020/12/13 02:20:09;;;;;;;3.15;1.25;;;;;;;-0.76;100.00;98824.63;5052156;28;20043;-77
2020/12/13 02:23:13;;;;;;;1.02;1.02;;;;;;;-0.78;100.00;98826.28;5052085;28;20095;-78
2020/12/13 02:26:16;;;;;;;1.63;1.20;;;;;;;-0.76;100.00;98832.09;5052231;28;20094;-78
2020/12/13 02:29:19;;;;;;;3.58;3.22;;;;;;;-0.74;100.00;98829.69;5052212;28;20048;-78
2020/12/13 02:32:21;;;;;;;4.43;2.10;;;;;;;-0.71;100.00;98833.56;5052220;28;20139;-77
2020/12/13 02:35:24;;;;;;;26.90;2.28;;;;;;;-0.69;100.00;98825.69;5052431;28;20052;-78
2020/12/13 02:38:28;;;;;;;1.75;1.40;;;;;;;-0.71;100.00;98823.38;5052254;28;20051;-78
2020/12/13 02:41:31;;;;;;;2.90;1.35;;;;;;;-0.68;100.00;98824.47;5051838;28;20052;-77
2020/12/13 02:44:34;;;;;;;0.50;0.50;;;;;;;-0.65;100.00;98813.47;5051793;28;20571;-78
2020/12/13 02:47:36;;;;;;;3.45;2.08;;;;;;;-0.62;100.00;98798.16;5052010;28;20048;-78
2020/12/13 02:50:39;;;;;;;1.27;1.05;;;;;;;-0.59;100.00;98795.38;5039415;28;20098;-78
2020/12/13 02:53:42;;;;;;;0.93;0.90;;;;;;;-0.57;100.00;98784.78;5051970;28;20107;-79
2020/12/13 02:56:45;;;;;;;9.63;1.92;;;;;;;-0.56;100.00;98783.56;5051711;28;20163;-78
2020/12/13 02:59:48;;;;;;;9.43;1.85;;;;;;;-0.56;100.00;98775.38;5051794;28;20143;-78
2020/12/13 03:02:50;;;;;;;0.70;0.70;;;;;;;-0.54;100.00;98781.19;5051381;28;20087;-78
2020/12/13 03:05:53;;;;;;;4.80;1.65;;;;;;;-0.50;100.00;98779.16;5051908;28;20623;-79
2020/12/13 03:08:56;;;;;;;0.73;0.73;;;;;;;-0.46;100.00;98777.09;5051871;28;20103;-78
2020/12/13 03:11:59;;;;;;;1.15;1.05;;;;;;;-0.45;100.00;98778.63;5051443;28;20137;-77
2020/12/13 03:15:02;;;;;;;2.92;1.40;;;;;;;-0.43;100.00;98762.53;5051703;28;20075;-78
2020/12/13 03:18:05;;;;;;;0.40;0.40;;;;;;;-0.39;100.00;98765.97;5052074;28;20397;-78
2020/12/13 03:21:08;;;;;;;1.58;0.65;;;;;;;-0.26;100.00;98760.59;5051415;28;20110;-78
2020/12/13 03:24:12;;;;;;;0.70;0.70;;;;;;;-0.07;100.00;98746.00;5039114;28;20043;-77
2020/12/13 03:27:15;;;;;;;1.10;1.08;;;;;;;0.25;100.00;98751.41;5051795;28;20547;-78
2020/12/13 03:30:18;;;;;;;0.77;0.77;;;;;;;0.41;100.00;98748.56;5051542;28;20090;-77
2020/12/13 03:33:21;;;;;;;0.57;0.57;;;;;;;0.50;100.00;98737.75;5051636;28;20048;-78
2020/12/13 03:36:24;;;;;;;8.35;1.45;;;;;;;0.52;100.00;98729.13;5051341;28;20059;-78
2020/12/13 03:39:27;;;;;;;0.95;0.63;;;;;;;0.54;100.00;98729.47;5051461;28;20076;-78
2020/12/13 03:42:29;;;;;;;0.43;0.43;;;;;;;0.52;100.00;98726.41;5051671;28;20047;-77
2020/12/13 03:45:33;;;;;;;2.63;1.25;;;;;;;0.52;100.00;98729.13;5055642;28;20052;-78
2020/12/13 03:48:36;;;;;;;2.60;0.93;;;;;;;0.60;100.00;98727.72;5042393;28;20063;-78
2020/12/13 03:51:39;;;;;;;1.13;0.55;;;;;;;0.71;100.00;98720.69;5054737;28;20135;-79
2020/12/13 03:54:42;;;;;;;1.00;0.95;;;;;;;0.72;100.00;98713.25;5054623;28;20148;-78
2020/12/13 03:57:45;;;;;;;1.77;0.50;;;;;;;0.74;100.00;98713.59;5054693;28;20052;-79
2020/12/13 04:00:48;;;;;;;0.40;0.40;;;;;;;0.82;100.00;98706.69;5054529;28;20047;-78
2020/12/13 04:03:51;;;;;;;0.55;0.55;;;;;;;0.87;100.00;98691.69;5054385;28;20099;-78
2020/12/13 04:06:53;;;;;;;2.55;0.50;;;;;;;0.97;100.00;98699.56;5054243;28;20126;-78
2020/12/13 04:09:56;;;;;;;1.10;1.05;;;;;;;1.04;100.00;98687.63;5054462;28;20099;-78
2020/12/13 04:12:59;;;;;;;0.32;0.32;;;;;;;1.11;100.00;98685.41;5054505;28;20055;-78
2020/12/13 04:16:02;;;;;;;2.05;1.50;;;;;;;1.16;100.00;98687.59;5054370;28;20095;-78
2020/12/13 04:19:05;;;;;;;1.00;0.60;;;;;;;1.19;100.00;98678.47;5054101;28;20075;-79
2020/12/13 04:22:08;;;;;;;0.55;0.55;;;;;;;1.22;100.00;98679.56;5054312;28;20562;-77
2020/12/13 04:25:11;;;;;;;2.38;1.08;;;;;;;1.23;100.00;98681.91;5054596;28;20076;-78
2020/12/13 04:28:13;;;;;;;1.08;0.73;;;;;;;1.29;100.00;98680.13;5054306;28;20208;-77
2020/12/13 04:31:16;;;;;;;0.43;0.43;;;;;;;1.31;100.00;98672.22;5054565;28;20440;-78
2020/12/13 04:34:19;;;;;;;1.23;0.98;;;;;;;1.38;100.00;98676.72;5054314;28;20116;-77
2020/12/13 04:37:25;;;;;;;0.73;0.73;;;;;;;1.42;100.00;98680.88;5054137;28;20607;-78
2020/12/13 04:40:28;;;;;;;2.50;0.73;;;;;;;1.45;100.00;98679.22;5054167;28;20047;-77
2020/12/13 04:43:31;;;;;;;1.25;1.23;;;;;;;1.47;100.00;98680.28;5054339;28;20500;-77
2020/12/13 04:46:40;;;;;;;3.55;0.80;;;;;;;1.51;100.00;98675.47;5054139;28;20210;-78
2020/12/13 04:49:47;;;;;;;0.63;0.63;;;;;;;1.53;100.00;98670.31;5054343;28;20574;-78
2020/12/13 04:52:56;;;;;;;2.17;1.13;;;;;;;1.53;100.00;98661.31;5054007;28;20044;-78
2020/12/13 04:56:00;;;;;;;1.35;1.25;;;;;;;1.53;100.00;98661.31;5054209;28;20697;-78
2020/12/13 04:59:05;;;;;;;1.60;1.50;;;;;;;1.54;100.00;98660.09;5039793;28;20552;-78
2020/12/13 05:02:11;;;;;;;1.60;0.80;;;;;;;1.57;100.00;98650.19;5050470;28;20118;-78
2020/12/13 05:05:14;;;;;;;1.02;0.70;;;;;;;1.59;100.00;98647.78;5052795;28;20087;-78
2020/12/13 05:08:18;;;;;;;0.77;0.68;;;;;;;1.59;100.00;98632.09;5050678;28;20075;-78
2020/12/13 05:11:21;;;;;;;2.10;1.17;;;;;;;1.60;100.00;98627.38;5050438;28;20644;-78
2020/12/13 05:14:24;;;;;;;1.40;1.30;;;;;;;1.60;100.00;98630.13;5050049;28;20451;-77
2020/12/13 05:17:26;;;;;;;10.50;1.95;;;;;;;1.58;100.00;98625.09;5050589;28;20091;-77
2020/12/13 05:20:29;;;;;;;0.90;0.77;;;;;;;1.57;100.00;98636.47;5050967;28;20094;-77
2020/12/13 05:23:33;;;;;;;1.65;0.57;;;;;;;1.55;100.00;98631.44;5051770;28;20107;-77
2020/12/13 05:26:36;;;;;;;1.75;0.57;;;;;;;1.58;100.00;98636.06;5052446;28;20206;-77
2020/12/13 05:29:44;;;;;;;0.55;0.55;;;;;;;1.60;100.00;98635.59;5052297;28;20056;-77
2020/12/13 05:32:47;;;;;;;1.83;1.38;;;;;;;1.63;100.00;98631.97;5053064;28;20508;-78
2020/12/13 05:35:59;;;;;;;0.93;0.93;;;;;;;1.64;100.00;98606.84;5052492;28;20413;-77
2020/12/13 05:39:03;;;;;;;;;;;;;;;1.66;100.00;98606.38;5040229;28;20110;-78
2020/12/13 05:42:06;;;;;;;1.98;1.70;;;;;;;1.66;100.00;98609.13;5052016;28;19970;-77
2020/12/13 05:51:47;;;;;;;0.77;0.77;;;;;;;1.67;100.00;98602.44;5052352;28;20056;-78
2020/12/13 05:54:51;;;;;;;2.53;1.23;;;;;;;1.70;100.00;98598.78;5051899;28;20056;-78
2020/12/13 05:57:54;;;;;;;0.45;0.45;;;;;;;1.68;100.00;98593.75;5031855;28;20103;-78
2020/12/13 06:00:58;;;;;;;3.10;1.70;;;;;;;1.70;100.00;98588.59;5031672;28;20103;-78
2020/12/13 06:04:02;;;;;;;0.45;0.45;;;;;;;1.70;100.00;98588.59;5032195;28;20045;-78
2020/12/13 06:07:05;;;;;;;1.13;0.85;;;;;;;1.72;100.00;98585.38;5031409;28;20402;-78
2020/12/13 06:10:33;;;;;;;2.55;1.58;;;;;;;1.73;100.00;98564.97;5032350;28;20047;-78
2020/12/13 06:13:44;;;;;;;0.77;0.77;;;;;;;1.76;100.00;98562.09;5035954;28;20486;-78
2020/12/13 06:16:49;;;;;;;1.00;0.80;;;;;;;1.78;100.00;98556.16;5052550;28;20048;-78
2020/12/13 06:19:53;;;;;;;1.15;1.10;;;;;;;1.79;100.00;98563.19;5052488;28;20099;-78
2020/12/13 06:22:58;;;;;;;5.32;1.15;;;;;;;1.82;100.00;98563.03;5052417;28;20095;-78
2020/12/13 06:26:02;;;;;;;5.97;1.90;;;;;;;1.85;100.00;98561.38;5052442;28;20060;-78
2020/12/13 06:29:06;;;;;;;11.23;1.52;;;;;;;1.88;100.00;98566.00;5040145;28;20040;-77
2020/12/13 06:32:09;;;;;;;2.80;1.50;;;;;;;1.91;100.00;98570.56;5052246;28;20044;-77
2020/12/13 06:35:14;;;;;;;4.88;0.55;;;;;;;1.96;100.00;98572.75;5052332;28;20094;-77
2020/12/13 06:38:18;;;;;;;1.85;1.02;;;;;;;1.97;100.00;98574.28;5051526;28;20043;-77
2020/12/13 06:41:28;;;;;;;2.08;1.98;;;;;;;1.99;100.00;98566.38;5052378;28;20055;-77
2020/12/13 06:44:31;;;;;;;3.15;1.10;;;;;;;2.03;100.00;98572.47;5052170;28;20051;-78
2020/12/13 06:47:38;;;;;;;3.30;1.30;;;;;;;2.04;100.00;98571.25;5051993;28;20154;-77
2020/12/13 06:50:42;;;;;;;1.40;1.30;;;;;;;2.05;100.00;98568.09;5051753;28;20047;-77
2020/12/13 06:53:49;;;;;;;5.43;0.95;;;;;;;2.07;100.00;98573.88;5051887;28;20751;-76
2020/12/13 06:56:52;;;;;;;1.15;1.10;;;;;;;2.08;100.00;98564.41;5051809;28;20052;-76
2020/12/13 06:59:56;;;;;;;15.63;1.70;;;;;;;2.10;100.00;98561.97;5051929;28;20051;-76
2020/12/13 07:03:00;;;;;;;2.45;1.13;;;;;;;2.10;100.00;98558.50;5051829;28;20044;-76
2020/12/13 07:06:06;;;;;;;1.58;0.70;;;;;;;2.11;100.00;98557.25;5051645;28;20103;-75
2020/12/13 07:09:08;;;;;;;0.82;0.77;;;;;;;2.10;100.00;98556.50;5051510;28;20083;-75
2020/12/13 07:12:11;;;;;;;4.03;2.08;;;;;;;2.12;100.00;98554.06;5051806;28;20069;-74
2020/12/13 07:18:48;;;;;;;1.55;0.45;;;;;;;2.17;100.00;98552.72;5054380;28;20485;-76
2020/12/13 07:21:57;;;;;;;0.82;0.60;;;;;;;2.19;100.00;98536.53;5055776;28;20052;-76
2020/12/13 07:25:00;;;;;;;0.50;0.47;;;;;;;2.19;100.00;98531.06;5055842;28;20060;-76
2020/12/13 07:28:05;;;;;;;0.50;0.50;;;;;;;2.20;100.00;98525.13;5055595;28;20095;-77
2020/12/13 07:31:10;;;;;;;0.60;0.60;;;;;;;2.23;100.00;98515.22;5043061;28;20576;-76
2020/12/13 07:34:13;;;;;;;1.50;0.82;;;;;;;2.25;100.00;98510.06;5055490;28;20103;-76
2020/12/13 07:37:17;;;;;;;1.65;0.60;;;;;;;2.28;100.00;98496.16;5055350;28;20048;-77
2020/12/13 07:40:20;;;;;;;1.65;1.23;;;;;;;2.31;100.00;98483.50;5055455;28;20106;-77
2020/12/13 07:43:23;;;;;;;1.45;1.35;;;;;;;2.32;100.00;98463.06;5055133;28;20094;-76
2020/12/13 07:46:29;;;;;;;0.52;0.52;;;;;;;2.34;100.00;98460.63;5054752;28;20044;-76
2020/12/13 07:49:31;;;;;;;0.63;0.63;;;;;;;2.35;100.00;98444.91;5045559;28;20107;-75
2020/12/13 07:52:34;;;;;;;0.65;0.65;;;;;;;2.37;100.00;98437.75;5047816;28;20420;-75
2020/12/13 07:55:46;;;;;;;4.72;1.42;;;;;;;2.41;100.00;98432.88;5041631;28;20130;-75
2020/12/13 07:58:49;;;;;;;0.70;0.65;;;;;;;2.45;100.00;98436.22;5035233;28;20736;-74
2020/12/13 08:01:57;;;;;;;2.55;2.00;;;;;;;2.50;100.00;98435.63;5035227;28;20083;-74
2020/12/13 08:05:00;;;;;;;0.70;0.70;;;;;;;2.53;100.00;98440.22;5041134;28;20527;-75
2020/12/13 08:08:03;;;;;;;0.47;0.47;;;;;;;2.55;100.00;98432.28;5035360;28;20051;-76
2020/12/13 08:11:13;;;;;;;0.93;0.80;;;;;;;2.57;100.00;98432.59;5034596;28;20140;-76
2020/12/13 08:14:20;;;;;;;0.10;0.10;;;;;;;2.59;100.00;98416.41;5043831;28;20060;-76
2020/12/13 08:17:23;;;;;;;4.35;0.82;;;;;;;2.61;100.00;98424.97;5055175;28;20059;-77
2020/12/13 08:20:29;;;;;;;0.75;0.43;;;;;;;2.61;100.00;98422.22;5054892;28;20520;-77
2020/12/13 08:23:32;;;;;;;0.35;0.35;;;;;;;2.60;100.00;98409.69;5054775;28;20512;-76
2020/12/13 08:26:35;;;;;;;0.73;0.52;;;;;;;2.61;100.00;98405.72;5054699;28;20122;-76
2020/12/13 08:29:39;;;;;;;0.52;0.50;;;;;;;2.65;100.00;98397.31;5054223;28;20046;-77
2020/12/13 08:32:44;;;;;;;0.20;0.20;;;;;;;2.67;100.00;98395.66;5053670;28;20504;-77
2020/12/13 08:35:47;;;;;;;0.90;0.40;;;;;;;2.67;100.00;98378.38;5054542;28;20044;-76
2020/12/13 08:39:10;;;;;;;2.58;1.58;;;;;;;2.72;100.00;98381.31;5054803;28;20094;-77
2020/12/13 08:42:22;;;;;;;4.60;0.55;;;;;;;2.75;100.00;98382.38;5054232;28;20051;-78
2020/12/13 08:45:25;;;;;;;1.08;0.65;;;;;;;2.78;100.00;98379.47;5054217;28;20420;-79
2020/12/13 08:48:28;;;;;;;2.40;0.63;;;;;;;2.83;100.00;98375.34;5054612;28;20051;-78
2020/12/13 08:51:32;;;;;;;4.75;0.80;;;;;;;2.87;100.00;98364.94;5042251;28;20079;-78
2020/12/13 08:55:05;;;;;;;0.40;0.30;;;;;;;2.90;100.00;98340.03;5054354;28;20385;-78
2020/12/13 08:58:16;;;;;;;0.85;0.68;;;;;;;2.95;100.00;98341.41;5053986;28;20060;-78
2020/12/13 09:01:22;;;;;;;3.13;0.98;;;;;;;3.00;100.00;98330.56;5053814;28;20114;-78
2020/12/13 09:04:28;;;;;;;0.47;0.47;;;;;;;3.05;100.00;98321.69;5054281;28;20059;-78
2020/12/13 09:07:31;;;;;;;1.23;1.13;;;;;;;3.11;100.00;98318.31;5054242;28;20106;-78
2020/12/13 09:10:38;;;;;;;1.40;0.55;;;;;;;3.14;100.00;98300.91;5041244;28;20056;-77
2020/12/13 09:13:50;;;;;;;1.95;0.50;;;;;;;3.16;100.00;98303.94;5053812;28;20052;-78
2020/12/13 09:16:54;;;;;;;0.63;0.38;;;;;;;3.21;100.00;98308.81;5053952;28;20179;-78
2020/12/13 09:19:57;;;;;;;0.25;0.20;;;;;;;3.23;100.00;98306.38;5053604;28;20044;-78
2020/12/13 09:23:04;;;;;;;0.40;0.38;;;;;;;3.26;100.00;98313.69;5053428;28;20135;-79
2020/12/13 09:26:07;;;;;;;0.10;0.10;;;;;;;3.28;100.00;98311.22;5053406;28;20110;-78
2020/12/13 09:29:10;;;;;;;0.45;0.45;;;;;;;3.30;100.00;98295.03;5041116;28;20193;-78
2020/12/13 09:32:15;;;;;;;3.60;0.50;;;;;;;3.32;100.00;98289.81;5040899;28;20536;-78
2020/12/13 09:35:19;;;;;;;0.80;0.70;;;;;;;3.36;100.00;98290.41;5053204;28;20044;-78
2020/12/13 09:38:21;;;;;;;4.82;0.93;;;;;;;3.40;100.00;98285.53;5053102;28;20130;-78
2020/12/13 09:41:24;;;;;;;0.98;0.60;;;;;;;3.44;100.00;98280.59;5039900;28;20055;-77
2020/12/13 09:44:27;;;;;;;0.40;0.28;;;;;;;3.46;100.00;98286.41;5053203;28;20048;-76
2020/12/13 09:47:30;;;;;;;0.30;0.30;;;;;;;3.48;100.00;98283.94;5053307;28;20202;-76
2020/12/13 09:50:33;;;;;;;0.22;0.22;;;;;;;3.52;100.00;98270.78;5052779;28;20091;-76
2020/12/13 09:53:36;;;;;;;9.55;1.27;;;;;;;3.55;100.00;98267.84;5053117;28;20520;-75
2020/12/13 09:56:38;;;;;;;2.20;0.43;;;;;;;3.60;100.00;98260.94;5052993;28;20091;-76
2020/12/13 09:59:41;;;;;;;0.68;0.68;;;;;;;3.63;100.00;98271.03;5053095;28;20488;-75
2020/12/13 10:02:44;;;;;;;3.40;0.57;;;;;;;3.68;100.00;98267.66;5052665;28;20138;-74
2020/12/13 10:06:09;;;;;;;0.68;0.40;;;;;;;3.69;100.00;98264.41;5052949;28;20040;-77
2020/12/13 10:09:12;;;;;;;5.90;0.43;;;;;;;3.73;100.00;98261.47;5053056;28;20051;-77
2020/12/13 10:12:15;;;;;;;0.45;0.45;;;;;;;3.74;100.00;98247.25;5052451;28;20417;-76
2020/12/13 10:15:18;;;;;;;0.38;0.25;;;;;;;3.78;100.00;98250.59;5051575;28;20056;-76
2020/12/13 10:18:21;;;;;;;0.60;0.60;;;;;;;3.81;100.00;98233.13;5052710;28;20048;-75
2020/12/13 10:21:25;;;;;;;9.45;1.05;;;;;;;3.85;100.00;98227.47;5052475;28;20119;-75
2020/12/13 10:24:28;;;;;;;5.85;0.82;;;;;;;3.88;100.00;98221.00;5052186;28;20467;-75
2020/12/13 10:27:34;;;;;;;1.58;0.90;;;;;;;3.88;100.00;98212.00;5052501;28;20398;-76
2020/12/13 10:30:37;;;;;;;11.35;0.68;;;;;;;3.90;100.00;98196.50;5052448;28;20178;-76
2020/12/13 10:33:41;;;;;;;0.20;0.15;;;;;;;3.93;100.00;98184.56;5052227;28;20421;-77
2020/12/13 10:36:44;;;;;;;2.47;0.50;;;;;;;3.95;100.00;98164.81;5050105;28;20052;-76
2020/12/13 10:39:47;;;;;;;0.73;0.43;;;;;;;3.99;100.00;98155.13;5049305;28;20397;-76
2020/12/13 10:42:50;;;;;;;0.65;0.40;;;;;;;4.03;100.00;98139.19;5049061;28;20098;-76
2020/12/13 10:45:53;;;;;;;2.20;1.25;;;;;;;4.05;100.00;98142.22;5042624;28;20091;-76
2020/12/13 10:48:56;;;;;;;0.47;0.47;;;;;;;4.08;100.00;98127.50;5046771;28;20071;-75
2020/12/13 10:52:00;;;;;;;4.95;0.73;;;;;;;4.10;100.00;98122.28;5051912;28;20126;-76
2020/12/13 10:55:03;;;;;;;4.25;1.58;;;;;;;4.13;100.00;98115.84;5051192;28;20098;-76
2020/12/13 10:58:06;;;;;;;1.60;0.57;;;;;;;4.17;100.00;98110.13;5052165;28;20048;-76
2020/12/13 11:01:13;;;;;;;1.08;0.55;;;;;;;4.16;100.00;98081.81;5051913;28;20056;-76
2020/12/13 11:04:18;;;;;;;0.45;0.43;;;;;;;4.17;100.00;98060.53;5052331;28;20044;-77
2020/12/13 11:07:21;;;;;;;0.28;0.28;;;;;;;4.17;100.00;98042.03;5052064;28;20048;-76
2020/12/13 11:10:24;;;;;;;2.28;0.68;;;;;;;4.17;100.00;98047.53;5051439;28;20052;-77
2020/12/13 11:13:27;;;;;;;2.13;0.88;;;;;;;4.20;100.00;98040.31;5051873;28;20452;-74
2020/12/13 11:16:30;;;;;;;5.13;0.80;;;;;;;4.21;100.00;98025.28;5039558;28;20048;-76
2020/12/13 11:19:33;;;;;;;0.17;0.17;;;;;;;4.22;100.00;98033.06;5051976;28;20118;-76
2020/12/13 11:22:35;;;;;;;1.65;0.95;;;;;;;4.26;100.00;98036.41;5051804;28;20056;-76
2020/12/13 11:25:38;;;;;;;0.52;0.20;;;;;;;4.27;100.00;98032.41;5051420;28;20056;-75
2020/12/13 11:28:41;;;;;;;1.02;0.50;;;;;;;4.29;100.00;98018.91;5051344;28;20051;-75
2020/12/13 11:31:44;;;;;;;1.75;1.00;;;;;;;4.35;100.00;97992.19;5051499;28;20550;-76
2020/12/13 11:34:46;;;;;;;0.30;0.20;;;;;;;4.39;100.00;97984.50;5051933;28;20132;-77
2020/12/13 11:37:50;;;;;;;0.38;0.32;;;;;;;4.40;100.00;97982.50;5051804;28;20068;-76
2020/12/13 11:40:53;;;;;;;0.35;0.35;;;;;;;4.42;100.00;97980.78;5051602;28;20048;-77
2020/12/13 11:43:56;;;;;;;0.30;0.20;;;;;;;4.48;100.00;97989.88;5051680;28;20580;-75
2020/12/13 11:46:59;;;;;;;0.57;0.30;;;;;;;4.56;100.00;97993.78;5051641;28;20183;-76
2020/12/13 11:50:04;;;;;;;0.20;0.20;;;;;;;4.71;100.00;97974.41;5051324;28;20048;-76
2020/12/13 11:53:08;;;;;;;0.70;0.38;;;;;;;4.85;100.00;97972.84;5051579;28;20163;-78
2020/12/13 11:56:11;;;;;;;0.10;0.10;;;;;;;5.00;100.00;97968.75;5039266;28;20093;-79
2020/12/13 11:59:13;;;;;;;0.22;0.20;;;;;;;5.11;100.00;97971.66;5051066;28;20132;-78
2020/12/13 12:02:16;;;;;;;0.68;0.22;;;;;;;5.15;100.00;97961.19;5051027;28;20106;-78
2020/12/13 12:05:19;;;;;;;0.40;0.20;;;;;;;5.10;100.00;97958.34;5054614;28;20048;-75
2020/12/13 12:08:22;;;;;;;0.10;0.10;;;;;;;5.07;100.00;97940.00;5055400;28;20052;-76
2020/12/13 12:11:26;;;;;;;0.10;0.10;;;;;;;5.05;100.00;97946.00;5054850;28;20131;-76
2020/12/13 12:14:29;;;;;;;0.60;0.47;;;;;;;5.07;100.00;97931.72;5055291;28;20048;-76
2020/12/13 12:17:32;;;;;;;0.13;0.10;;;;;;;5.08;100.00;97933.25;5055037;28;20083;-73
2020/12/13 12:20:35;;;;;;;0.55;0.22;;;;;;;5.10;100.00;97934.28;5054758;28;20048;-73
2020/12/13 12:23:39;;;;;;;0.52;0.52;;;;;;;5.12;100.00;97922.75;5055000;28;20052;-76
2020/12/13 12:26:42;;;;;;;1.65;0.40;;;;;;;5.16;100.00;97909.50;5054649;28;20140;-76
2020/12/13 12:29:45;;;;;;;0.20;0.10;;;;;;;5.17;100.00;97906.28;5054666;28;20056;-74
2020/12/13 12:32:48;;;;;;;0.68;0.20;;;;;;;5.20;100.00;97907.28;5054665;28;20119;-75
2020/12/13 12:35:51;;;;;;;0.13;0.10;;;;;;;5.23;100.00;97898.03;5054508;28;20102;-75
2020/12/13 12:38:54;;;;;;;0.47;0.15;;;;;;;5.26;100.00;97897.81;5054322;28;20094;-77
2020/12/13 12:41:57;;;;;;;0.45;0.20;;;;;;;5.31;100.00;97896.34;5054090;28;20119;-75
2020/12/13 12:45:00;;;;;;;0.15;0.15;;;;;;;5.33;100.00;97882.81;5054353;28;20099;-76
2020/12/13 12:48:03;;;;;;;0.43;0.28;;;;;;;5.38;100.00;97873.84;5054140;28;20145;-75
2020/12/13 12:51:08;;;;;;;0.20;0.10;;;;;;;5.40;100.00;97871.34;5054204;28;20059;-75
2020/12/13 12:54:11;;;;;;;0.10;0.10;;;;;;;5.40;100.00;97860.31;5050476;28;20102;-75
2020/12/13 12:57:14;;;;;;;12.15;0.35;;;;;;;5.41;100.00;97850.78;5052111;28;20098;-75
2020/12/13 13:03:30;;;;;;;1.75;0.40;;;;;;;5.49;100.00;97824.25;5052633;28;20040;-73
2020/12/13 13:09:49;;;;;;;0.10;0.10;;;;;;;5.55;100.00;97819.53;5053519;28;20127;-75
2020/12/13 13:12:52;;;;;;;1.63;0.30;;;;;;;5.58;100.00;97821.31;5052163;28;20127;-75
2020/12/13 13:15:58;;;;;;;0.10;0.10;;;;;;;5.61;100.00;97809.25;5048174;28;20048;-75
2020/12/13 13:19:07;;;;;;;0.20;0.20;;;;;;;5.66;100.00;97800.28;5051242;28;20044;-75
2020/12/13 13:22:10;;;;;;;0.20;0.20;;;;;;;5.69;100.00;97782.72;5053195;28;20047;-75
2020/12/13 13:25:13;;;;;;;0.20;0.15;;;;;;;5.72;100.00;97780.97;5053590;28;20767;-76
2020/12/13 13:28:15;;;;;;;0.20;0.20;;;;;;;5.74;100.00;97762.66;5053564;28;20099;-76
2020/12/13 13:31:22;;;;;;;0.20;0.10;;;;;;;5.79;100.00;97778.50;5053509;28;20074;-75
2020/12/13 13:34:25;;;;;;;0.10;0.10;;;;;;;5.82;100.00;97769.25;5053396;28;20056;-76
2020/12/13 13:37:28;;;;;;;0.10;0.10;;;;;;;5.86;100.00;97769.03;5053523;28;20109;-75
2020/12/13 13:40:32;;;;;;;0.50;0.25;;;;;;;5.85;100.00;97762.75;5053430;28;20094;-76
2020/12/13 13:43:40;;;;;;;0.10;0.10;;;;;;;5.87;100.00;97757.50;5053776;28;20570;-75
2020/12/13 13:50:04;;;;;;;0.10;0.10;;;;;;;5.93;100.00;97747.22;5053159;28;20186;-76
2020/12/13 13:53:10;;;;;;;0.30;0.30;;;;;;;5.95;100.00;97743.97;5052989;28;20436;-74
2020/12/13 13:56:17;;;;;;;0.75;0.10;;;;;;;5.96;100.00;97740.72;5052946;28;20102;-75
2020/12/13 13:59:23;;;;;;;0.52;0.30;;;;;;;5.99;100.00;97734.22;5052822;28;20044;-75
2020/12/13 14:02:26;;;;;;;2.53;0.43;;;;;;;6.03;100.00;97737.47;5053063;28;20139;-74
2020/12/13 14:05:29;;;;;;;0.40;0.17;;;;;;;6.08;100.00;97722.94;5052871;28;20107;-74
2020/12/13 14:08:42;;;;;;;3.22;0.57;;;;;;;6.13;100.00;97726.22;5051577;28;20076;-75
2020/12/13 14:11:52;;;;;;;0.20;0.20;;;;;;;6.17;100.00;97721.22;5051503;28;20128;-75
2020/12/13 14:14:55;;;;;;;11.07;0.40;;;;;;;6.20;100.00;97709.13;5052798;28;20405;-75
2020/12/13 14:17:58;;;;;;;0.10;0.10;;;;;;;6.23;100.00;97702.63;5052653;28;20098;-75
2020/12/13 14:21:01;;;;;;;3.45;0.50;;;;;;;6.23;100.00;97697.09;5052776;28;20653;-75
2020/12/13 14:24:04;;;;;;;0.45;0.45;;;;;;;6.27;100.00;97703.91;5052511;28;20542;-75
2020/12/13 14:27:07;;;;;;;0.73;0.20;;;;;;;6.35;100.00;97701.38;5052253;28;20736;-75
2020/12/13 14:30:10;;;;;;;0.52;0.30;;;;;;;6.40;100.00;97684.84;5052268;28;20110;-75
2020/12/13 14:33:13;;;;;;;0.73;0.32;;;;;;;6.43;100.00;97677.56;5052568;28;20536;-74
2020/12/13 14:36:20;;;;;;;0.52;0.10;;;;;;;6.47;100.00;97683.59;5052023;28;20512;-75
2020/12/13 14:39:23;;;;;;;0.85;0.43;;;;;;;6.50;100.00;97674.28;5052211;28;20060;-74
2020/12/13 14:42:26;;;;;;;0.10;0.10;;;;;;;6.51;100.00;97671.03;5052034;28;20102;-78
2020/12/13 14:45:29;;;;;;;0.38;0.20;;;;;;;6.52;100.00;97649.66;5052101;28;20053;-76
2020/12/13 14:48:33;;;;;;;0.30;0.20;;;;;;;6.51;100.00;97648.91;5052349;28;20139;-75